createdAt,value
2019-05-17T00:01:07.322Z,97508.94
2019-05-17T00:03:42.275Z,97508.82
2019-05-17T00:06:17.041Z,97502.79
2019-05-17T00:08:51.673Z,97498.17
2019-05-17T00:11:27.383Z,97498.17
2019-05-17T00:14:02.258Z,97504.05
2019-05-17T00:16:37.490Z,97498.12
2019-05-17T00:19:12.274Z,97500.13
2019-05-17T00:21:47.505Z,97492.14
2019-05-17T00:24:21.950Z,97489.53
2019-05-17T00:26:58.487Z,97484.44
2019-05-17T00:29:32.325Z,97483.77
2019-05-17T00:32:06.874Z,97483.77
2019-05-17T00:34:39.996Z,97479.94
2019-05-17T00:37:12.888Z,97471.98
2019-05-17T00:39:47.109Z,97472.31
2019-05-17T00:42:21.674Z,97466.48
2019-05-17T00:44:56.522Z,97466.48
2019-05-17T00:47:30.947Z,97469.40
2019-05-17T00:50:03.800Z,97471.70
2019-05-17T00:52:38.273Z,97467.98
2019-05-17T00:55:12.940Z,97471.22
2019-05-17T00:57:47.623Z,97460.33
2019-05-17T01:00:22.275Z,97460.48
2019-05-17T01:02:57.342Z,97455.56
2019-05-17T01:05:31.945Z,97461.09
2019-05-17T01:08:07.291Z,97460.33
2019-05-17T01:10:42.106Z,97452.18
2019-05-17T01:13:17.303Z,97448.08
2019-05-17T01:15:51.949Z,97447.17
2019-05-17T01:18:26.958Z,97447.17
2019-05-17T01:21:01.776Z,97443.98
2019-05-17T01:23:36.357Z,97443.98
2019-05-17T01:26:11.279Z,97440.20
2019-05-17T01:28:46.778Z,97445.79
2019-05-17T01:31:21.304Z,97443.81
2019-05-17T01:33:56.504Z,97438.28
2019-05-17T01:36:31.272Z,97447.48
2019-05-17T01:39:17.024Z,97442.73
2019-05-17T01:41:42.316Z,97445.17
2019-05-17T01:44:16.940Z,97445.17
2019-05-17T01:46:51.322Z,97436.58
2019-05-17T01:49:27.115Z,97436.58
2019-05-17T01:52:01.836Z,97438.92
2019-05-17T01:54:36.266Z,97437.39
2019-05-17T01:57:10.664Z,97435.52
2019-05-17T01:59:46.667Z,97435.52
2019-05-17T02:02:24.248Z,97438.28
2019-05-17T02:04:58.367Z,97428.13
2019-05-17T02:07:32.889Z,97428.13
2019-05-17T02:10:07.866Z,97427.52
2019-05-17T02:12:42.123Z,97416.80
2019-05-17T02:15:20.267Z,97419.98
2019-05-17T02:17:54.697Z,97417.84
2019-05-17T02:20:29.118Z,97417.64
2019-05-17T02:23:03.694Z,97420.08
2019-05-17T02:25:38.118Z,97414.13
2019-05-17T02:28:12.770Z,97408.77
2019-05-17T02:30:47.773Z,97407.24
2019-05-17T02:33:23.643Z,97403.09
2019-05-17T02:35:56.738Z,97399.24
2019-05-17T02:38:33.325Z,97395.09
2019-05-17T02:41:08.276Z,97395.09
2019-05-17T02:43:43.419Z,97390.89
2019-05-17T02:46:17.957Z,97388.13
2019-05-17T02:48:53.913Z,97392.02
2019-05-17T02:51:28.326Z,97399.39
2019-05-17T02:54:04.304Z,97399.39
2019-05-17T02:56:38.919Z,97390.48
2019-05-17T02:59:13.759Z,97394.33
2019-05-17T03:01:46.864Z,97394.33
2019-05-17T03:04:23.663Z,97391.09
2019-05-17T03:06:55.703Z,97399.66
2019-05-17T03:09:33.295Z,97399.39
2019-05-17T03:12:04.821Z,97392.48
2019-05-17T03:14:39.100Z,97402.01
2019-05-17T03:17:14.233Z,97406.45
2019-05-17T03:19:48.711Z,97406.45
2019-05-17T03:22:23.285Z,97403.95
2019-05-17T03:24:57.723Z,97394.13
2019-05-17T03:27:33.777Z,97405.63
2019-05-17T03:30:08.881Z,97410.41
2019-05-17T03:32:47.620Z,97408.55
2019-05-17T03:35:25.875Z,97405.48
2019-05-17T03:37:57.273Z,97406.16
2019-05-17T03:41:00.968Z,97402.31
2019-05-17T03:43:08.319Z,97394.63
2019-05-17T03:45:42.777Z,97399.95
2019-05-17T03:48:15.693Z,97400.52
2019-05-17T03:50:52.879Z,97400.52
2019-05-17T03:53:26.282Z,97401.11
2019-05-17T03:56:03.020Z,97399.11
2019-05-17T03:58:36.936Z,97401.53
2019-05-17T04:01:14.123Z,97401.53
2019-05-17T04:03:47.253Z,97396.14
2019-05-17T04:06:23.890Z,97405.20
2019-05-17T04:08:57.923Z,97397.52
2019-05-17T04:11:36.286Z,97403.06
2019-05-17T04:14:08.305Z,97404.14
2019-05-17T04:16:43.036Z,97402.91
2019-05-17T04:19:17.693Z,97405.77
2019-05-17T04:21:53.730Z,97405.77
2019-05-17T04:24:27.018Z,97405.30
2019-05-17T04:27:03.688Z,97407.91
2019-05-17T04:29:37.240Z,97411.07
2019-05-17T04:32:12.925Z,97411.07
2019-05-17T04:34:47.675Z,97406.71
2019-05-17T04:37:22.771Z,97404.53
2019-05-17T04:39:58.341Z,97406.48
2019-05-17T04:42:33.221Z,97406.77
2019-05-17T04:45:08.313Z,97402.73
2019-05-17T04:47:44.130Z,97396.55
2019-05-17T04:50:22.775Z,97404.80
2019-05-17T04:52:56.267Z,97400.49
2019-05-17T04:55:33.786Z,97408.33
2019-05-17T04:58:07.936Z,97402.94
2019-05-17T05:00:43.029Z,97405.78
2019-05-17T05:03:17.777Z,97403.78
2019-05-17T05:05:53.538Z,97402.19
2019-05-17T05:08:26.725Z,97401.03
2019-05-17T05:11:04.137Z,97399.91
2019-05-17T05:16:17.728Z,97386.11
2019-05-17T05:18:52.254Z,97390.41
2019-05-17T05:21:26.711Z,97389.56
2019-05-17T05:23:59.676Z,97388.14
2019-05-17T05:26:33.938Z,97391.93
2019-05-17T05:29:08.274Z,97383.91
2019-05-17T05:31:42.883Z,97389.04
2019-05-17T05:34:17.391Z,97384.19
2019-05-17T05:36:52.581Z,97379.64
2019-05-17T05:39:27.274Z,97386.49
2019-05-17T05:42:07.917Z,97379.91
2019-05-17T05:44:37.945Z,97385.73
2019-05-17T05:47:12.288Z,97379.02
2019-05-17T05:49:46.931Z,97380.05
2019-05-17T05:52:21.829Z,97379.50
2019-05-17T05:54:56.342Z,97376.85
2019-05-17T05:57:32.196Z,97372.67
2019-05-17T06:00:08.285Z,97376.12
2019-05-17T06:02:42.909Z,97372.36
2019-05-17T06:05:17.950Z,97374.34
2019-05-17T06:07:52.205Z,97369.94
2019-05-17T06:10:27.298Z,97376.30
2019-05-17T06:13:03.262Z,97367.88
2019-05-17T06:15:38.266Z,97372.71
2019-05-17T06:18:12.732Z,97381.59
2019-05-17T06:20:46.077Z,97388.35
2019-05-17T06:23:23.203Z,97388.53
2019-05-17T06:25:57.114Z,97390.10
2019-05-17T06:28:32.023Z,97388.86
2019-05-17T06:31:06.955Z,97387.78
2019-05-17T06:33:42.282Z,97382.75
2019-05-17T06:36:17.288Z,97382.75
2019-05-17T06:38:52.777Z,97376.66
2019-05-17T06:41:27.280Z,97381.05
2019-05-17T06:44:02.908Z,97377.71
2019-05-17T06:46:37.775Z,97382.54
2019-05-17T06:49:12.560Z,97382.54
2019-05-17T06:51:47.263Z,97376.11
2019-05-17T06:54:21.818Z,97362.16
2019-05-17T06:56:56.278Z,97366.39
2019-05-17T06:59:30.933Z,97359.46
2019-05-17T07:02:05.688Z,97366.36
2019-05-17T07:04:39.496Z,97366.36
2019-05-17T07:07:27.280Z,97365.98
2019-05-17T07:10:02.342Z,97348.93
2019-05-17T07:12:51.094Z,97348.93
2019-05-17T07:15:14.135Z,97354.35
2019-05-17T07:17:50.487Z,97355.93
2019-05-17T07:20:25.432Z,97357.29
2019-05-17T07:23:01.278Z,97356.95
2019-05-17T07:25:35.921Z,97361.31
2019-05-17T07:28:10.016Z,97357.81
2019-05-17T07:30:45.275Z,97348.84
2019-05-17T07:33:21.106Z,97344.52
2019-05-17T07:35:55.749Z,97344.02
2019-05-17T07:38:30.467Z,97344.02
2019-05-17T07:41:05.278Z,97346.80
2019-05-17T07:43:40.524Z,97341.61
2019-05-17T07:46:14.276Z,97338.70
2019-05-17T07:48:49.734Z,97335.83
2019-05-17T07:51:24.416Z,97335.83
2019-05-17T07:53:59.706Z,97342.07
2019-05-17T07:56:34.363Z,97338.05
2019-05-17T07:59:09.582Z,97338.05
2019-05-17T08:01:44.334Z,97330.50
2019-05-17T08:04:20.443Z,97335.77
2019-05-17T08:06:55.398Z,97335.77
2019-05-17T08:09:30.283Z,97325.08
2019-05-17T08:12:05.089Z,97323.58
2019-05-17T08:14:40.173Z,97307.31
2019-05-17T08:17:15.286Z,97307.31
2019-05-17T08:19:50.008Z,97302.55
2019-05-17T08:22:24.681Z,97300.30
2019-05-17T08:25:00.042Z,97300.30
2019-05-17T08:27:34.893Z,97301.75
2019-05-17T08:30:10.585Z,97304.39
2019-05-17T08:32:45.311Z,97299.42
2019-05-17T08:35:20.098Z,97296.86
2019-05-17T08:37:54.957Z,97300.05
2019-05-17T08:40:30.725Z,97300.05
2019-05-17T08:43:05.299Z,97294.80
2019-05-17T08:45:40.909Z,97294.17
2019-05-17T08:48:15.755Z,97291.70
2019-05-17T08:50:50.341Z,97291.70
2019-05-17T08:53:24.945Z,97287.76
2019-05-17T08:56:01.016Z,97286.69
2019-05-17T08:58:35.947Z,97280.21
2019-05-17T09:01:11.706Z,97272.13
2019-05-17T09:03:45.018Z,97272.13
2019-05-17T09:06:19.896Z,97275.14
2019-05-17T09:08:54.689Z,97278.66
2019-05-17T09:11:30.202Z,97278.00
2019-05-17T09:14:03.106Z,97275.06
2019-05-17T09:16:40.069Z,97272.63
2019-05-17T09:19:14.290Z,97272.63
2019-05-17T09:21:50.341Z,97270.56
2019-05-17T09:24:25.354Z,97271.77
2019-05-17T09:27:01.311Z,97265.87
2019-05-17T09:29:36.211Z,97265.87
2019-05-17T09:32:11.213Z,97251.44
2019-05-17T09:34:46.131Z,97255.60
2019-05-17T09:37:22.691Z,97261.73
2019-05-17T09:39:55.866Z,97248.20
2019-05-17T09:42:30.006Z,97252.09
2019-05-17T09:45:06.259Z,97253.13
2019-05-17T09:47:41.260Z,97252.31
2019-05-17T09:50:16.951Z,97252.90
2019-05-17T09:52:51.665Z,97236.28
2019-05-17T09:55:26.282Z,97250.04
2019-05-17T09:58:01.269Z,97249.14
2019-05-17T10:00:36.286Z,97250.56
2019-05-17T10:03:11.072Z,97239.50
2019-05-17T10:05:45.691Z,97230.95
2019-05-17T10:08:19.066Z,97230.95
2019-05-17T10:11:04.953Z,97234.93
2019-05-17T10:13:29.949Z,97227.95
2019-05-17T10:16:04.297Z,97217.86
2019-05-17T10:18:40.126Z,97225.52
2019-05-17T10:21:15.276Z,97218.93
2019-05-17T10:23:50.261Z,97211.34
2019-05-17T10:26:25.261Z,97211.25
2019-05-17T10:29:00.123Z,97211.25
2019-05-17T10:31:34.778Z,97222.11
2019-05-17T10:34:09.691Z,97222.11
2019-05-17T10:36:44.327Z,97223.62
2019-05-17T10:39:19.402Z,97225.59
2019-05-17T10:41:54.290Z,97228.94
2019-05-17T10:44:43.099Z,97229.90
2019-05-17T10:47:10.098Z,97230.44
2019-05-17T10:49:45.271Z,97230.58
2019-05-17T10:52:20.364Z,97215.34
2019-05-17T10:54:55.283Z,97232.78
2019-05-17T10:57:30.370Z,97232.78
2019-05-17T11:00:05.297Z,97227.73
2019-05-17T11:02:39.036Z,97229.98
2019-05-17T11:05:13.767Z,97219.23
2019-05-17T11:07:50.475Z,97219.23
2019-05-17T11:10:24.711Z,97232.70
2019-05-17T11:12:59.296Z,97232.70
2019-05-17T11:15:33.947Z,97230.45
2019-05-17T11:18:08.410Z,97230.45
2019-05-17T11:20:43.270Z,97225.63
2019-05-17T11:23:18.340Z,97235.17
2019-05-17T11:25:52.946Z,97226.98
2019-05-17T11:28:27.694Z,97220.86
2019-05-17T11:31:02.249Z,97220.86
2019-05-17T11:33:36.941Z,97219.76
2019-05-17T11:36:11.311Z,97206.96
2019-05-17T11:38:45.896Z,97206.96
2019-05-17T11:41:21.768Z,97216.26
2019-05-17T11:43:56.699Z,97205.02
2019-05-17T11:46:36.250Z,97205.02
2019-05-17T11:49:06.377Z,97208.22
2019-05-17T11:51:41.150Z,97206.22
2019-05-17T11:54:15.741Z,97199.89
2019-05-17T11:56:49.959Z,97199.89
2019-05-17T11:59:24.708Z,97192.28
2019-05-17T12:01:58.083Z,97192.28
2019-05-17T12:04:32.648Z,97188.72
2019-05-17T12:07:07.612Z,97197.17
2019-05-17T12:09:42.282Z,97195.09
2019-05-17T12:12:16.893Z,97197.55
2019-05-17T12:14:51.302Z,97193.73
2019-05-17T12:17:26.129Z,97184.78
2019-05-17T12:20:00.880Z,97190.53
2019-05-17T12:22:34.276Z,97189.86
2019-05-17T12:25:09.152Z,97189.86
2019-05-17T12:27:44.208Z,97195.70
2019-05-17T12:30:19.289Z,97191.68
2019-05-17T12:32:54.136Z,97191.33
2019-05-17T12:35:28.865Z,97185.38
2019-05-17T12:38:02.189Z,97185.38
2019-05-17T12:40:36.703Z,97178.92
2019-05-17T12:43:10.043Z,97178.92
2019-05-17T12:45:43.069Z,97182.06
2019-05-17T12:48:17.447Z,97181.22
2019-05-17T12:50:52.287Z,97182.33
2019-05-17T12:53:26.961Z,97172.83
2019-05-17T12:56:01.668Z,97173.53
2019-05-17T12:58:35.065Z,97177.14
2019-05-17T13:01:09.730Z,97173.13
2019-05-17T13:03:43.052Z,97173.13
2019-05-17T13:06:17.630Z,97180.27
2019-05-17T13:08:52.274Z,97170.63
2019-05-17T13:11:26.883Z,97170.78
2019-05-17T13:14:01.683Z,97169.31
2019-05-17T13:16:36.279Z,97166.40
2019-05-17T13:19:11.251Z,97172.57
2019-05-17T13:21:45.927Z,97156.61
2019-05-17T13:24:20.679Z,97165.69
2019-05-17T13:26:55.277Z,97163.38
2019-05-17T13:29:29.945Z,97158.59
2019-05-17T13:32:04.642Z,97158.59
2019-05-17T13:34:39.332Z,97154.95
2019-05-17T13:37:15.271Z,97156.52
2019-05-17T13:39:50.272Z,97150.84
2019-05-17T13:42:24.950Z,97144.56
2019-05-17T13:44:59.906Z,97136.60
2019-05-17T13:47:34.287Z,97136.60
2019-05-17T13:50:09.726Z,97135.98
2019-05-17T13:52:43.949Z,97135.98
2019-05-17T13:55:18.312Z,97135.69
2019-05-17T13:57:52.779Z,97123.62
2019-05-17T14:00:27.279Z,97131.09
2019-05-17T14:03:01.778Z,97125.95
2019-05-17T14:05:36.287Z,97134.00
2019-05-17T14:08:10.873Z,97128.47
2019-05-17T14:10:45.284Z,97138.24
2019-05-17T14:13:19.788Z,97128.81
2019-05-17T14:15:53.851Z,97128.17
2019-05-17T14:18:26.673Z,97129.48
2019-05-17T14:21:00.948Z,97132.42
2019-05-17T14:23:35.286Z,97136.23
2019-05-17T14:26:09.706Z,97142.09
2019-05-17T14:28:42.807Z,97143.87
2019-05-17T14:31:17.128Z,97137.81
2019-05-17T14:33:51.734Z,97133.34
2019-05-17T14:36:24.664Z,97131.88
2019-05-17T14:38:58.960Z,97134.70
2019-05-17T14:41:33.404Z,97130.26
2019-05-17T14:44:07.950Z,97130.26
2019-05-17T14:46:42.274Z,97132.38
2019-05-17T14:49:16.778Z,97132.12
2019-05-17T14:51:50.820Z,97127.85
2019-05-17T14:54:25.249Z,97119.89
2019-05-17T14:56:59.706Z,97114.73
2019-05-17T14:59:34.101Z,97113.50
2019-05-17T15:02:08.693Z,97105.31
2019-05-17T15:04:43.151Z,97105.31
2019-05-17T15:07:17.890Z,97115.47
2019-05-17T15:09:52.304Z,97106.03
2019-05-17T15:12:28.727Z,97112.56
2019-05-17T15:15:02.902Z,97107.95
2019-05-17T15:17:37.534Z,97107.95
2019-05-17T15:20:12.260Z,97109.70
2019-05-17T15:22:46.712Z,97109.70
2019-05-17T15:25:21.283Z,97106.72
2019-05-17T15:27:55.749Z,97099.52
2019-05-17T15:30:29.547Z,97094.23
2019-05-17T15:33:04.218Z,97095.81
2019-05-17T15:35:39.733Z,97096.86
2019-05-17T15:38:14.283Z,97090.72
2019-05-17T15:40:48.759Z,97085.39
2019-05-17T15:43:23.280Z,97088.63
2019-05-17T15:45:57.736Z,97087.20
2019-05-17T15:48:32.284Z,97095.50
2019-05-17T15:51:06.940Z,97093.95
2019-05-17T15:53:41.282Z,97088.78
2019-05-17T15:56:15.761Z,97086.52
2019-05-17T15:58:48.907Z,97086.52
2019-05-17T16:01:23.313Z,97084.41
2019-05-17T16:03:57.951Z,97087.94
2019-05-17T16:06:32.643Z,97082.22
2019-05-17T16:09:08.322Z,97082.22
2019-05-17T16:11:42.817Z,97075.26
2019-05-17T16:14:17.243Z,97084.22
2019-05-17T16:16:52.731Z,97081.80
2019-05-17T16:19:25.852Z,97075.47
2019-05-17T16:21:58.872Z,97075.47
2019-05-17T16:24:32.956Z,97071.89
2019-05-17T16:27:07.359Z,97072.89
2019-05-17T16:29:42.290Z,97065.11
2019-05-17T16:32:16.950Z,97072.50
2019-05-17T16:34:51.417Z,97072.50
2019-05-17T16:37:26.246Z,97069.70
2019-05-17T16:40:00.958Z,97064.16
2019-05-17T16:42:37.355Z,97057.56
2019-05-17T16:45:13.949Z,97057.56
2019-05-17T16:47:49.286Z,97057.53
2019-05-17T16:50:24.136Z,97062.73
2019-05-17T16:53:05.869Z,97060.50
2019-05-17T16:55:35.708Z,97066.99
2019-05-17T16:58:10.289Z,97066.05
2019-05-17T17:00:46.292Z,97064.49
2019-05-17T17:03:21.136Z,97068.84
2019-05-17T17:05:56.749Z,97077.17
2019-05-17T17:08:31.288Z,97063.81
2019-05-17T17:11:05.957Z,97069.53
2019-05-17T17:13:40.332Z,97065.75
2019-05-17T17:16:14.944Z,97065.75
2019-05-17T17:18:49.355Z,97070.81
2019-05-17T17:21:24.003Z,97065.33
2019-05-17T17:23:58.779Z,97069.84
2019-05-17T17:26:32.110Z,97065.19
2019-05-17T17:29:06.595Z,97065.19
2019-05-17T17:31:41.286Z,97065.61
2019-05-17T17:34:15.945Z,97069.50
2019-05-17T17:36:50.292Z,97066.48
2019-05-17T17:41:44.935Z,97065.83
2019-05-17T17:44:19.652Z,97060.55
2019-05-17T17:46:54.256Z,97060.55
2019-05-17T17:49:29.150Z,97063.34
2019-05-17T17:52:03.734Z,97066.35
2019-05-17T17:54:36.900Z,97065.81
2019-05-17T17:57:09.874Z,97065.81
2019-05-17T17:59:44.285Z,97070.20
2019-05-17T18:02:18.905Z,97067.27
2019-05-17T18:04:53.407Z,97074.03
2019-05-17T18:07:27.960Z,97074.03
2019-05-17T18:10:02.354Z,97074.50
2019-05-17T18:12:36.961Z,97066.06
2019-05-17T18:15:11.602Z,97067.43
2019-05-17T18:17:45.961Z,97072.59
2019-05-17T18:20:20.305Z,97070.52
2019-05-17T18:22:54.907Z,97078.67
2019-05-17T18:25:27.864Z,97081.67
2019-05-17T18:28:02.282Z,97078.11
2019-05-17T18:30:36.908Z,97081.98
2019-05-17T18:33:12.700Z,97082.06
2019-05-17T18:35:47.295Z,97083.75
2019-05-17T18:38:24.785Z,97079.55
2019-05-17T18:40:58.062Z,97079.11
2019-05-17T18:43:32.475Z,97076.08
2019-05-17T18:46:07.267Z,97076.92
2019-05-17T18:48:41.735Z,97078.86
2019-05-17T18:53:46.738Z,97077.31
2019-05-17T18:56:19.808Z,97070.59
2019-05-17T18:58:54.283Z,97074.83
2019-05-17T19:01:28.955Z,97078.17
2019-05-17T19:04:03.675Z,97075.96
2019-05-17T19:06:38.188Z,97075.96
2019-05-17T19:09:12.780Z,97078.95
2019-05-17T19:11:47.291Z,97081.30
2019-05-17T19:14:21.741Z,97082.43
2019-05-17T19:16:56.149Z,97074.63
2019-05-17T19:19:30.690Z,97071.72
2019-05-17T19:22:05.273Z,97071.72
2019-05-17T19:24:39.775Z,97074.45
2019-05-17T19:27:12.834Z,97072.84
2019-05-17T19:29:47.266Z,97072.84
2019-05-17T19:32:21.742Z,97067.25
2019-05-17T19:34:56.282Z,97071.41
2019-05-17T19:37:30.968Z,97071.05
2019-05-17T19:40:06.659Z,97076.38
2019-05-17T19:42:40.956Z,97078.59
2019-05-17T19:45:16.764Z,97079.74
2019-05-17T19:47:51.298Z,97079.74
2019-05-17T19:50:25.797Z,97075.14
2019-05-17T19:52:58.876Z,97073.03
2019-05-17T19:55:33.320Z,97079.49
2019-05-17T19:58:08.294Z,97077.28
2019-05-17T20:00:42.886Z,97078.22
2019-05-17T20:03:17.279Z,97072.68
2019-05-17T20:05:51.762Z,97070.94
2019-05-17T20:08:24.871Z,97071.83
2019-05-17T20:10:57.992Z,97075.19
2019-05-17T20:14:14.886Z,97071.48
2019-05-17T20:16:49.279Z,97075.19
2019-05-17T20:19:23.717Z,97068.51
2019-05-17T20:21:58.294Z,97068.69
2019-05-17T20:24:32.811Z,97060.77
2019-05-17T20:27:07.339Z,97060.77
2019-05-17T20:29:41.945Z,97070.52
2019-05-17T20:32:16.345Z,97063.97
2019-05-17T20:34:51.017Z,97063.84
2019-05-17T20:37:25.683Z,97056.64
2019-05-17T20:40:00.157Z,97056.64
2019-05-17T20:42:34.693Z,97053.61
2019-05-17T20:45:10.788Z,97061.20
2019-05-17T20:47:43.872Z,97057.02
2019-05-17T20:50:18.337Z,97056.04
2019-05-17T20:52:53.135Z,97054.52
2019-05-17T20:55:27.798Z,97055.65
2019-05-17T20:58:00.987Z,97056.69
2019-05-17T21:00:33.722Z,97064.92
2019-05-17T21:03:07.957Z,97066.07
2019-05-17T21:05:42.287Z,97060.51
2019-05-17T21:08:16.747Z,97057.11
2019-05-17T21:10:50.108Z,97055.73
2019-05-17T21:13:24.748Z,97055.38
2019-05-17T21:15:59.249Z,97055.38
2019-05-17T21:18:33.954Z,97050.67
2019-05-17T21:21:08.698Z,97054.62
2019-05-17T21:23:43.252Z,97054.98
2019-05-17T21:26:17.722Z,97054.62
2019-05-17T21:28:52.281Z,97064.86
2019-05-17T21:31:26.736Z,97061.95
2019-05-17T21:34:01.415Z,97061.80
2019-05-17T21:37:34.893Z,97054.81
2019-05-17T21:40:10.319Z,97055.45
2019-05-17T21:42:45.125Z,97056.35
2019-05-17T21:45:19.775Z,97065.20
2019-05-17T21:47:54.292Z,97065.20
2019-05-17T21:50:29.069Z,97059.28
2019-05-17T21:53:03.669Z,97065.75
2019-05-17T21:55:38.299Z,97065.75
2019-05-17T21:58:12.761Z,97062.22
2019-05-17T22:01:19.800Z,97063.34
2019-05-17T22:03:54.286Z,97057.54
2019-05-17T22:06:28.748Z,97052.51
2019-05-17T22:09:02.124Z,97053.89
2019-05-17T22:11:40.321Z,97053.89
2019-05-17T22:14:14.949Z,97054.03
2019-05-17T22:16:49.576Z,97049.23
2019-05-17T22:19:24.114Z,97052.39
2019-05-17T22:21:58.797Z,97047.09
2019-05-17T22:24:33.104Z,97047.09
2019-05-17T22:27:07.720Z,97052.03
2019-05-17T22:29:42.138Z,97050.14
2019-05-17T22:32:16.727Z,97043.42
2019-05-17T22:34:51.087Z,97046.70
2019-05-17T22:37:25.636Z,97045.08
2019-05-17T22:40:00.289Z,97045.08
2019-05-17T22:42:34.709Z,97045.17
2019-05-17T22:45:09.365Z,97046.92
2019-05-17T22:47:43.909Z,97041.11
2019-05-17T22:50:18.289Z,97036.80
2019-05-17T22:52:52.739Z,97040.72
2019-05-17T22:55:25.715Z,97040.33
2019-05-17T22:58:00.289Z,97038.16
2019-05-17T23:00:35.905Z,97040.66
2019-05-17T23:03:10.278Z,97040.91
2019-05-17T23:05:44.887Z,97039.52
2019-05-17T23:08:18.040Z,97038.61
2019-05-17T23:10:52.648Z,97035.95
2019-05-17T23:13:26.946Z,97035.81
2019-05-17T23:16:03.129Z,97040.31
2019-05-17T23:18:37.705Z,97049.38
2019-05-17T23:21:11.295Z,97028.92
2019-05-17T23:23:45.634Z,97033.16
2019-05-17T23:26:18.813Z,97033.16
2019-05-17T23:28:52.951Z,97035.55
2019-05-17T23:31:26.076Z,97035.42
2019-05-17T23:34:00.326Z,97031.50
2019-05-17T23:36:34.750Z,97030.47
2019-05-17T23:39:09.955Z,97022.38
2019-05-17T23:41:44.314Z,97017.81
2019-05-17T23:44:18.738Z,97017.81
2019-05-17T23:47:06.250Z,97017.02
2019-05-17T23:49:29.284Z,97021.56
2019-05-17T23:52:03.819Z,97020.03
2019-05-17T23:54:38.285Z,97020.52
2019-05-17T23:57:12.741Z,97017.23
2019-05-17T23:59:47.132Z,97014.44
